Time;durP1;ratioP1;P1;durP2;ratioP2;P2;SDS_P1;SDS_P2;PMS_P1;PMS_P2;Temp;Humidity;BMP_temperature;BMP_pressure;BME280_temperature;BME280_humidity;BME280_pressure;Samples;Min_cycle;Max_cycle;Signal;HPM_P1;HPM_P2
2022/01/17 00:01:05;;;;;;;16.57;9.37;;;5.80;99.90;;;;;;5032416;28;20428;-74
2022/01/17 00:03:31;;;;;;;13.77;7.20;;;5.80;99.90;;;;;;5032258;28;20537;-74
2022/01/17 00:05:56;;;;;;;14.80;9.47;;;5.80;99.90;;;;;;5031966;28;20561;-74
2022/01/17 00:08:22;;;;;;;12.10;9.40;;;5.80;99.90;;;;;;5032373;28;20172;-74
2022/01/17 00:10:48;;;;;;;8.17;6.43;;;5.80;99.90;;;;;;5032295;28;20167;-74
2022/01/17 00:13:23;;;;;;;13.30;8.10;;;5.80;99.90;;;;;;5032044;28;20517;-73
2022/01/17 00:15:52;;;;;;;14.27;7.20;;;5.80;99.90;;;;;;5031865;28;20651;-74
2022/01/17 00:20:45;;;;;;;13.53;8.60;;;5.80;99.90;;;;;;5032323;28;20756;-74
2022/01/17 00:23:15;;;;;;;7.87;6.27;;;5.90;99.90;;;;;;5032805;28;20191;-74
2022/01/17 00:25:41;;;;;;;12.33;6.53;;;5.90;99.90;;;;;;5034534;28;20440;-72
2022/01/17 00:28:06;;;;;;;13.50;8.07;;;5.90;99.90;;;;;;5035059;28;20410;-73
2022/01/17 00:30:31;;;;;;;11.07;7.30;;;5.90;99.90;;;;;;5031816;28;20220;-73
2022/01/17 00:32:57;;;;;;;11.80;6.20;;;5.90;99.90;;;;;;5031973;28;20172;-74
2022/01/17 00:35:24;;;;;;;8.50;7.17;;;5.90;99.90;;;;;;5033297;28;20215;-72
2022/01/17 00:37:50;;;;;;;6.67;4.30;;;5.90;99.90;;;;;;5033715;28;20178;-73
2022/01/17 00:40:16;;;;;;;8.30;4.10;;;6.00;99.90;;;;;;5034287;28;20406;-73
2022/01/17 00:42:42;;;;;;;8.90;5.70;;;6.00;99.90;;;;;;5032416;28;20658;-74
2022/01/17 00:45:12;;;;;;;15.70;4.20;;;6.00;99.90;;;;;;5032354;28;20737;-74
2022/01/17 00:47:38;;;;;;;7.40;4.27;;;6.10;99.90;;;;;;5032631;28;20408;-74
2022/01/17 00:50:04;;;;;;;16.87;6.97;;;6.10;99.90;;;;;;5030541;28;20430;-74
2022/01/17 00:52:30;;;;;;;6.70;5.40;;;6.10;99.90;;;;;;5033160;28;20163;-74
2022/01/17 00:54:55;;;;;;;14.80;5.50;;;6.10;99.90;;;;;;5032023;28;20518;-74
2022/01/17 00:57:21;;;;;;;9.87;7.67;;;6.10;99.90;;;;;;5048782;28;20188;-74
2022/01/17 00:59:46;;;;;;;5.63;4.53;;;6.10;99.90;;;;;;5047077;28;20186;-73
2022/01/17 01:02:12;;;;;;;10.80;5.00;;;6.10;99.90;;;;;;5047098;28;20210;-74
2022/01/17 01:04:37;;;;;;;5.07;4.30;;;6.20;99.90;;;;;;5047958;28;20198;-74
2022/01/17 01:07:03;;;;;;;12.20;7.13;;;6.20;99.90;;;;;;5045232;28;20461;-73
2022/01/17 01:09:34;;;;;;;8.03;3.93;;;6.20;99.90;;;;;;5047888;28;20160;-73
2022/01/17 01:11:59;;;;;;;6.33;4.33;;;6.20;99.90;;;;;;5044925;28;20187;-73
2022/01/17 01:14:25;;;;;;;15.40;4.67;;;6.20;99.90;;;;;;5034075;28;20423;-74
2022/01/17 01:16:53;;;;;;;5.83;4.33;;;6.30;99.90;;;;;;5032171;28;20176;-74
2022/01/17 01:19:26;;;;;;;5.97;3.53;;;6.30;99.90;;;;;;5034525;28;20574;-73
2022/01/17 01:27:38;;;;;;;6.00;3.57;;;6.30;99.90;;;;;;5035142;28;20485;-73
2022/01/17 01:30:09;;;;;;;5.90;4.00;;;6.30;99.90;;;;;;5035319;28;20900;-74
2022/01/17 01:32:43;;;;;;;6.80;4.43;;;6.30;99.90;;;;;;5035141;28;20402;-73
2022/01/17 01:35:12;;;;;;;5.43;3.00;;;6.30;99.90;;;;;;5034584;28;20460;-74
2022/01/17 01:37:37;;;;;;;3.07;2.77;;;6.30;99.90;;;;;;5017474;28;20418;-74
2022/01/17 01:40:03;;;;;;;2.97;2.67;;;6.30;99.90;;;;;;5034985;28;20464;-73
2022/01/17 01:42:31;;;;;;;3.10;2.20;;;6.40;99.90;;;;;;5034993;28;20191;-74
2022/01/17 01:44:57;;;;;;;2.87;2.63;;;6.30;99.90;;;;;;5034465;28;20426;-73
2022/01/17 01:47:25;;;;;;;3.40;2.57;;;6.30;99.90;;;;;;5034547;28;20414;-73
2022/01/17 01:49:51;;;;;;;5.57;2.40;;;6.30;99.90;;;;;;5034997;28;20634;-74
2022/01/17 01:52:16;;;;;;;4.23;1.67;;;6.30;99.90;;;;;;5034506;28;20402;-75
2022/01/17 01:54:42;;;;;;;1.57;1.23;;;6.30;99.90;;;;;;5034447;28;20445;-73
2022/01/17 01:57:08;;;;;;;2.07;1.40;;;6.30;99.90;;;;;;5034818;28;20179;-74
2022/01/17 01:59:33;;;;;;;0.90;0.90;;;6.30;99.90;;;;;;5035474;28;20168;-75
2022/01/17 02:01:58;;;;;;;1.53;1.43;;;6.20;99.90;;;;;;5035371;28;20190;-74
2022/01/17 02:04:24;;;;;;;2.17;1.43;;;6.20;99.90;;;;;;5017027;28;20611;-76
2022/01/17 02:06:50;;;;;;;3.70;1.67;;;6.00;99.90;;;;;;5034808;28;20233;-74
2022/01/17 02:09:15;;;;;;;3.17;1.40;;;6.00;99.90;;;;;;5021527;28;20176;-73
2022/01/17 02:11:41;;;;;;;0.80;0.80;;;5.90;99.90;;;;;;5015041;28;20538;-73
2022/01/17 02:14:06;;;;;;;1.27;1.17;;;5.70;99.90;;;;;;5014622;28;20168;-74
2022/01/17 02:16:32;;;;;;;1.23;1.00;;;5.60;99.90;;;;;;5025884;28;20175;-74
2022/01/17 02:18:58;;;;;;;2.13;0.93;;;5.60;99.90;;;;;;5034451;28;20537;-75
2022/01/17 02:23:59;;;;;;;3.03;0.80;;;5.50;99.90;;;;;;5034560;28;21045;-75
2022/01/17 02:26:26;;;;;;;1.83;1.00;;;5.50;99.90;;;;;;5034785;28;20873;-74
2022/01/17 02:28:54;;;;;;;0.70;0.70;;;5.60;99.90;;;;;;5036258;28;20403;-74
2022/01/17 02:31:21;;;;;;;2.00;1.17;;;5.60;99.90;;;;;;5035190;28;20438;-74
2022/01/17 02:33:49;;;;;;;1.60;0.90;;;5.70;99.90;;;;;;5034752;28;20418;-74
2022/01/17 02:36:14;;;;;;;1.80;0.90;;;5.70;99.90;;;;;;5033979;28;20450;-73
2022/01/17 02:38:41;;;;;;;0.60;0.60;;;5.70;99.90;;;;;;5033903;28;20464;-73
2022/01/17 02:41:07;;;;;;;1.00;0.80;;;5.70;99.90;;;;;;5034443;28;20167;-73
2022/01/17 02:43:33;;;;;;;2.50;0.80;;;5.80;99.90;;;;;;5034112;28;20840;-74
2022/01/17 02:48:30;;;;;;;2.53;0.80;;;5.90;99.90;;;;;;5034149;28;20414;-74
2022/01/17 02:50:57;;;;;;;7.33;1.40;;;5.90;99.90;;;;;;5034170;28;20410;-75
2022/01/17 02:53:23;;;;;;;3.70;2.50;;;5.90;99.90;;;;;;5034130;28;20407;-75
2022/01/17 02:55:51;;;;;;;1.37;1.03;;;5.90;99.90;;;;;;5033838;28;20525;-75
2022/01/17 02:58:19;;;;;;;0.80;0.73;;;5.90;99.90;;;;;;5033682;28;20418;-74
2022/01/17 03:00:46;;;;;;;2.27;1.33;;;5.90;99.90;;;;;;5033732;28;20419;-74
2022/01/17 03:03:16;;;;;;;1.37;0.80;;;6.00;99.90;;;;;;5033283;28;20458;-74
2022/01/17 03:05:42;;;;;;;4.97;1.00;;;6.00;99.90;;;;;;5033198;28;20430;-74
2022/01/17 03:08:07;;;;;;;1.90;0.73;;;6.00;99.90;;;;;;5033495;28;20417;-74
2022/01/17 03:10:39;;;;;;;0.77;0.73;;;6.00;99.90;;;;;;5033077;28;20171;-74
2022/01/17 03:13:08;;;;;;;0.70;0.70;;;6.00;99.90;;;;;;5033016;28;20164;-74
2022/01/17 03:15:34;;;;;;;1.00;0.90;;;6.00;99.90;;;;;;5032959;28;20450;-75
2022/01/17 03:18:00;;;;;;;3.53;1.13;;;6.00;99.90;;;;;;5023630;28;20419;-74
2022/01/17 03:20:26;;;;;;;1.50;1.27;;;6.00;99.90;;;;;;5032929;28;20429;-73
2022/01/17 03:22:52;;;;;;;0.80;0.60;;;6.00;99.90;;;;;;5032856;28;20462;-73
2022/01/17 03:25:17;;;;;;;2.93;1.93;;;6.00;99.90;;;;;;5032920;28;20191;-74
2022/01/17 03:27:42;;;;;;;1.87;1.60;;;6.00;99.90;;;;;;5032856;28;20168;-74
2022/01/17 03:30:08;;;;;;;3.90;1.10;;;6.00;99.90;;;;;;5032770;28;20171;-74
2022/01/17 03:32:34;;;;;;;1.33;0.60;;;6.00;99.90;;;;;;5032740;28;20222;-74
2022/01/17 03:35:00;;;;;;;2.03;1.00;;;6.00;99.90;;;;;;5032741;28;20957;-74
2022/01/17 03:37:26;;;;;;;1.00;0.80;;;6.00;99.90;;;;;;5032743;28;20164;-74
2022/01/17 03:39:52;;;;;;;2.00;1.07;;;6.00;99.90;;;;;;5032806;28;20419;-74
2022/01/17 03:42:21;;;;;;;3.17;0.93;;;6.00;99.90;;;;;;5031589;28;20534;-75
2022/01/17 03:44:47;;;;;;;1.53;1.13;;;5.90;99.90;;;;;;5032250;28;20267;-74
2022/01/17 03:47:13;;;;;;;11.17;1.50;;;6.00;99.90;;;;;;5032617;28;20878;-75
2022/01/17 03:49:39;;;;;;;6.00;2.03;;;5.90;99.90;;;;;;5032625;28;20536;-75
2022/01/17 03:52:05;;;;;;;2.93;1.10;;;6.00;99.90;;;;;;5032425;28;20409;-73
2022/01/17 03:54:31;;;;;;;2.00;1.23;;;6.00;99.90;;;;;;5033946;28;20415;-75
2022/01/17 03:56:58;;;;;;;1.63;1.13;;;6.00;99.90;;;;;;5032626;28;20415;-74
2022/01/17 03:59:23;;;;;;;0.70;0.70;;;6.00;99.90;;;;;;5032415;28;20468;-74
2022/01/17 04:01:49;;;;;;;0.83;0.83;;;6.00;99.90;;;;;;5032424;28;20493;-74
2022/01/17 04:04:14;;;;;;;0.67;0.67;;;6.00;99.90;;;;;;5032038;28;20191;-74
2022/01/17 04:06:40;;;;;;;2.20;1.00;;;6.00;99.90;;;;;;5032071;28;20225;-74
2022/01/17 04:09:05;;;;;;;0.80;0.77;;;6.00;99.90;;;;;;5031229;28;20164;-73
2022/01/17 04:11:31;;;;;;;0.77;0.77;;;6.00;99.90;;;;;;5032144;28;20179;-75
2022/01/17 04:13:56;;;;;;;1.10;1.00;;;6.00;99.90;;;;;;5032041;28;20171;-73
2022/01/17 04:16:22;;;;;;;0.70;0.70;;;6.00;99.90;;;;;;5032927;28;20195;-74
2022/01/17 04:18:47;;;;;;;2.37;0.80;;;6.00;99.90;;;;;;5015891;28;20195;-75
2022/01/17 04:21:13;;;;;;;1.43;0.80;;;6.00;99.90;;;;;;5032720;28;20250;-75
2022/01/17 04:23:38;;;;;;;2.47;1.30;;;6.00;99.90;;;;;;5032918;28;20200;-75
2022/01/17 04:26:04;;;;;;;4.23;1.50;;;6.00;99.90;;;;;;5032391;28;20183;-74
2022/01/17 04:28:30;;;;;;;0.80;0.80;;;6.00;99.90;;;;;;5032606;28;20182;-74
2022/01/17 04:30:56;;;;;;;1.63;1.10;;;6.00;99.90;;;;;;5031569;28;20614;-74
2022/01/17 04:33:21;;;;;;;0.60;0.60;;;5.90;99.90;;;;;;5031432;28;20409;-74
2022/01/17 04:35:47;;;;;;;1.13;1.00;;;5.90;99.90;;;;;;5031209;28;20211;-73
2022/01/17 04:38:18;;;;;;;0.93;0.80;;;6.00;99.90;;;;;;5031717;28;20583;-74
2022/01/17 04:40:46;;;;;;;0.83;0.80;;;5.90;99.90;;;;;;5031869;28;20258;-74
2022/01/17 04:43:19;;;;;;;0.83;0.83;;;5.90;99.90;;;;;;5031661;28;20454;-74
2022/01/17 04:45:46;;;;;;;0.70;0.70;;;5.90;99.90;;;;;;5031482;28;20507;-74
2022/01/17 04:48:11;;;;;;;2.20;0.60;;;5.90;99.90;;;;;;5013996;28;20472;-74
2022/01/17 04:50:37;;;;;;;1.40;1.00;;;5.90;99.90;;;;;;5031851;28;20920;-74
2022/01/17 04:53:03;;;;;;;0.73;0.73;;;5.90;99.90;;;;;;5032376;28;20168;-74
2022/01/17 04:55:29;;;;;;;2.77;1.63;;;5.90;99.90;;;;;;5035456;28;20560;-74
2022/01/17 04:57:56;;;;;;;2.80;1.20;;;5.90;99.90;;;;;;5035482;28;20417;-74
2022/01/17 05:00:23;;;;;;;1.00;0.60;;;5.90;99.90;;;;;;5035386;28;20448;-74
2022/01/17 05:02:49;;;;;;;0.70;0.70;;;5.90;99.90;;;;;;5035609;28;20464;-75
2022/01/17 05:05:15;;;;;;;1.13;1.03;;;5.80;99.90;;;;;;5035055;28;20493;-74
2022/01/17 05:07:41;;;;;;;1.03;1.00;;;5.80;99.90;;;;;;5035336;28;20172;-74
2022/01/17 05:10:10;;;;;;;1.47;0.77;;;5.80;99.90;;;;;;5017574;28;20822;-74
2022/01/17 05:12:36;;;;;;;2.07;0.90;;;5.90;99.90;;;;;;5035198;28;20402;-74
2022/01/17 05:15:03;;;;;;;0.73;0.73;;;5.80;99.90;;;;;;5034891;28;20986;-74
2022/01/17 05:20:01;;;;;;;0.80;0.80;;;5.90;99.90;;;;;;5035450;28;20410;-74
2022/01/17 05:22:31;;;;;;;1.10;0.87;;;5.90;99.90;;;;;;5035298;28;21056;-74
2022/01/17 05:24:58;;;;;;;2.17;0.73;;;5.90;99.90;;;;;;5035083;28;20458;-75
2022/01/17 05:27:24;;;;;;;0.60;0.60;;;5.90;99.90;;;;;;5035183;28;20448;-74
2022/01/17 05:29:49;;;;;;;1.73;1.63;;;5.90;99.90;;;;;;5035170;28;20410;-74
2022/01/17 05:32:15;;;;;;;0.73;0.70;;;5.90;99.90;;;;;;5035305;28;20172;-75
2022/01/17 05:34:41;;;;;;;1.10;1.00;;;5.90;99.90;;;;;;5034794;28;20630;-75
2022/01/17 05:37:08;;;;;;;0.80;0.80;;;5.90;99.90;;;;;;5035077;28;20407;-73
2022/01/17 05:39:34;;;;;;;3.13;0.80;;;6.00;99.90;;;;;;5034867;28;20172;-73
2022/01/17 05:42:00;;;;;;;2.10;1.33;;;6.00;99.90;;;;;;5034576;28;20441;-74
2022/01/17 05:44:26;;;;;;;3.33;1.43;;;6.00;99.90;;;;;;5034550;28;20777;-74
2022/01/17 05:46:51;;;;;;;2.03;0.80;;;6.00;99.90;;;;;;5034997;28;20828;-74
2022/01/17 05:49:17;;;;;;;2.17;1.20;;;6.00;99.90;;;;;;5034715;28;20242;-74
2022/01/17 05:51:43;;;;;;;14.17;2.53;;;6.00;99.90;;;;;;5034470;28;20545;-73
2022/01/17 05:54:08;;;;;;;0.70;0.70;;;6.00;99.90;;;;;;5034439;28;20175;-73
2022/01/17 05:56:34;;;;;;;1.10;1.00;;;6.00;99.90;;;;;;5034205;28;20267;-74
2022/01/17 05:58:59;;;;;;;1.83;1.40;;;6.00;99.90;;;;;;5034449;28;20183;-74
2022/01/17 06:01:25;;;;;;;4.00;1.23;;;6.00;99.90;;;;;;5034566;28;20168;-74
2022/01/17 06:03:51;;;;;;;1.63;1.40;;;6.00;99.90;;;;;;5034042;28;20234;-74
2022/01/17 06:06:16;;;;;;;1.57;1.10;;;6.00;99.90;;;;;;5035685;28;20434;-74
2022/01/17 06:08:42;;;;;;;1.03;0.73;;;6.00;99.90;;;;;;5036476;28;20172;-74
2022/01/17 06:11:08;;;;;;;3.00;1.00;;;6.00;99.90;;;;;;5021705;28;20176;-74
2022/01/17 06:13:33;;;;;;;1.40;1.30;;;6.00;99.90;;;;;;5034526;28;20183;-74
2022/01/17 06:15:59;;;;;;;1.93;1.53;;;5.90;99.90;;;;;;5034245;28;20693;-74
2022/01/17 06:18:24;;;;;;;1.43;0.70;;;6.00;99.90;;;;;;5034031;28;20250;-74
2022/01/17 06:20:50;;;;;;;7.23;3.63;;;6.00;99.90;;;;;;5034156;28;20184;-73
2022/01/17 06:23:16;;;;;;;1.47;1.37;;;5.90;99.90;;;;;;5033979;28;20192;-76
2022/01/17 06:25:41;;;;;;;8.27;2.03;;;5.90;99.90;;;;;;5033749;28;20183;-74
2022/01/17 06:28:07;;;;;;;0.80;0.80;;;5.80;99.90;;;;;;5034139;28;20176;-75
2022/01/17 06:30:32;;;;;;;2.50;0.80;;;5.90;99.90;;;;;;5034287;28;20175;-75
2022/01/17 06:32:58;;;;;;;2.27;0.90;;;5.90;99.90;;;;;;5033932;28;20635;-73
2022/01/17 06:35:23;;;;;;;0.87;0.87;;;5.80;99.90;;;;;;5033645;28;20211;-74
2022/01/17 06:37:51;;;;;;;1.03;0.93;;;5.70;99.90;;;;;;5033937;28;20572;-74
2022/01/17 06:40:16;;;;;;;7.30;1.43;;;5.70;99.90;;;;;;5047553;22;20241;-69
2022/01/17 06:42:42;;;;;;;0.80;0.60;;;5.70;99.90;;;;;;5032783;28;21019;-69
2022/01/17 06:45:08;;;;;;;0.70;0.70;;;5.60;99.90;;;;;;5033110;28;20661;-69
2022/01/17 06:47:35;;;;;;;1.07;1.07;;;5.60;99.90;;;;;;5032992;28;20168;-69
2022/01/17 06:50:04;;;;;;;1.00;0.97;;;5.60;99.90;;;;;;5041390;28;20413;-68
2022/01/17 06:52:30;;;;;;;1.60;1.30;;;5.50;99.90;;;;;;5052719;28;20954;-68
2022/01/17 06:54:56;;;;;;;1.00;0.70;;;5.50;99.90;;;;;;5052583;28;20489;-69
2022/01/17 06:57:23;;;;;;;0.60;0.60;;;5.50;99.90;;;;;;5052418;28;20409;-69
2022/01/17 06:59:49;;;;;;;1.13;1.13;;;5.50;99.90;;;;;;5052524;28;20183;-69
2022/01/17 07:02:14;;;;;;;1.07;0.97;;;5.40;99.90;;;;;;5052633;28;20405;-68
2022/01/17 07:04:40;;;;;;;0.70;0.70;;;5.40;99.90;;;;;;5052390;28;20903;-68
2022/01/17 07:07:05;;;;;;;2.13;1.33;;;5.40;99.90;;;;;;5052556;28;20857;-68
2022/01/17 07:09:31;;;;;;;1.20;1.10;;;5.40;99.90;;;;;;5052420;28;20191;-68
2022/01/17 07:11:59;;;;;;;2.17;0.90;;;5.40;99.90;;;;;;5052461;28;20725;-68
2022/01/17 07:14:27;;;;;;;1.13;1.03;;;5.40;99.90;;;;;;5052552;28;20519;-68
2022/01/17 07:16:52;;;;;;;7.63;2.20;;;5.40;99.90;;;;;;5051475;28;20425;-68
2022/01/17 07:19:18;;;;;;;0.87;0.87;;;5.40;99.90;;;;;;5052185;28;20866;-68
2022/01/17 07:21:43;;;;;;;4.00;1.47;;;5.40;99.90;;;;;;5052145;28;20405;-69
2022/01/17 07:24:09;;;;;;;1.37;0.90;;;5.40;99.90;;;;;;5052077;28;20194;-68
2022/01/17 07:26:34;;;;;;;1.87;0.67;;;5.40;99.90;;;;;;5052235;28;20257;-68
2022/01/17 07:29:02;;;;;;;1.60;1.37;;;5.40;99.90;;;;;;5052098;28;20776;-69
2022/01/17 07:31:27;;;;;;;0.80;0.73;;;5.50;99.90;;;;;;5052297;28;20542;-68
2022/01/17 07:33:53;;;;;;;2.60;0.93;;;5.50;99.90;;;;;;5052108;28;20402;-68
2022/01/17 07:36:20;;;;;;;5.40;1.57;;;5.50;99.90;;;;;;5052019;28;20228;-68
2022/01/17 07:38:46;;;;;;;0.93;0.83;;;5.50;99.90;;;;;;5051849;28;20559;-68
2022/01/17 07:41:12;;;;;;;1.20;0.90;;;5.60;99.90;;;;;;5051653;28;20465;-68
2022/01/17 07:43:38;;;;;;;4.63;1.23;;;5.60;99.90;;;;;;5051573;28;20520;-68
2022/01/17 07:46:17;;;;;;;0.83;0.70;;;5.60;99.90;;;;;;5051680;28;20456;-68
2022/01/17 07:51:28;;;;;;;1.77;1.50;;;5.70;99.90;;;;;;5051940;28;20458;-71
2022/01/17 07:53:54;;;;;;;2.10;2.00;;;5.70;99.90;;;;;;5051745;28;20417;-70
2022/01/17 07:56:20;;;;;;;1.37;0.97;;;5.70;99.90;;;;;;5052120;28;20624;-70
2022/01/17 07:58:46;;;;;;;1.73;1.27;;;5.80;99.90;;;;;;5051558;28;20433;-71
2022/01/17 08:01:12;;;;;;;8.80;0.90;;;5.80;99.90;;;;;;5045462;28;20462;-69
2022/01/17 08:03:37;;;;;;;0.97;0.93;;;5.80;99.90;;;;;;5038259;28;20195;-69
2022/01/17 08:06:03;;;;;;;1.00;0.90;;;5.80;99.90;;;;;;5031292;28;20296;-68
2022/01/17 08:08:28;;;;;;;2.13;1.00;;;5.80;99.90;;;;;;5049937;28;20642;-68
2022/01/17 08:10:54;;;;;;;1.10;1.00;;;5.70;99.90;;;;;;5050975;28;20198;-68
2022/01/17 08:13:19;;;;;;;1.13;0.90;;;5.70;99.90;;;;;;5051153;28;20609;-69
2022/01/17 08:15:46;;;;;;;0.87;0.80;;;5.70;99.90;;;;;;5049049;28;20185;-69
2022/01/17 08:18:13;;;;;;;0.80;0.80;;;5.80;99.90;;;;;;5050693;28;20229;-69
2022/01/17 08:20:38;;;;;;;1.23;0.93;;;5.70;99.90;;;;;;5050951;28;20870;-69
2022/01/17 08:23:04;;;;;;;2.67;1.57;;;5.80;99.90;;;;;;5050949;28;20489;-69
2022/01/17 08:25:30;;;;;;;1.63;1.30;;;5.80;99.90;;;;;;5051779;28;20179;-69
2022/01/17 08:27:56;;;;;;;1.10;0.90;;;5.80;99.90;;;;;;5035453;28;20178;-69
2022/01/17 08:30:23;;;;;;;1.10;1.00;;;5.80;99.90;;;;;;5055090;28;20437;-69
2022/01/17 08:32:49;;;;;;;1.60;1.43;;;5.80;99.90;;;;;;5045743;28;20668;-69
2022/01/17 08:35:14;;;;;;;0.80;0.80;;;5.80;99.90;;;;;;5050558;28;20487;-69
2022/01/17 08:37:40;;;;;;;2.17;1.97;;;5.80;99.90;;;;;;5055285;28;20417;-69
2022/01/17 08:40:07;;;;;;;0.73;0.73;;;5.80;99.90;;;;;;5055009;28;20207;-69
2022/01/17 08:42:37;;;;;;;0.77;0.70;;;5.90;99.90;;;;;;5054868;28;20694;-69
2022/01/17 08:45:05;;;;;;;4.20;0.93;;;5.90;99.90;;;;;;5054677;28;20520;-69
2022/01/17 08:47:31;;;;;;;1.10;1.00;;;5.90;99.90;;;;;;5054775;28;20955;-69
2022/01/17 08:49:56;;;;;;;0.90;0.80;;;5.90;99.90;;;;;;5045059;28;20438;-70
2022/01/17 08:52:22;;;;;;;0.80;0.80;;;5.90;99.90;;;;;;5054026;28;20416;-70
2022/01/17 08:54:48;;;;;;;0.70;0.70;;;6.00;99.90;;;;;;5054803;28;20183;-72
2022/01/17 08:57:14;;;;;;;1.43;0.90;;;6.00;99.90;;;;;;5041602;28;20265;-69
2022/01/17 08:59:40;;;;;;;0.80;0.80;;;6.00;99.90;;;;;;5054663;28;20202;-70
2022/01/17 09:02:06;;;;;;;1.07;0.73;;;6.00;99.90;;;;;;5054567;28;20417;-70
2022/01/17 09:04:31;;;;;;;0.60;0.60;;;6.10;99.90;;;;;;5054730;28;20534;-69
2022/01/17 09:06:57;;;;;;;2.03;1.27;;;6.10;99.90;;;;;;5054970;28;20179;-69
2022/01/17 09:09:23;;;;;;;0.90;0.70;;;6.20;99.90;;;;;;5054759;28;20622;-69
2022/01/17 09:11:48;;;;;;;0.50;0.50;;;6.10;99.90;;;;;;5054588;28;20175;-68
2022/01/17 09:14:14;;;;;;;0.80;0.80;;;6.00;99.90;;;;;;5054414;28;20641;-69
2022/01/17 09:16:39;;;;;;;0.60;0.60;;;6.00;99.90;;;;;;5045363;28;20184;-69
2022/01/17 09:19:06;;;;;;;1.47;1.03;;;6.00;99.90;;;;;;5053943;28;20246;-69
2022/01/17 09:21:32;;;;;;;0.70;0.70;;;6.10;99.90;;;;;;5054452;28;20183;-69
2022/01/17 09:23:58;;;;;;;0.70;0.70;;;6.00;99.90;;;;;;5053930;28;20510;-69
2022/01/17 09:26:27;;;;;;;0.83;0.83;;;5.90;99.90;;;;;;5054107;28;20258;-68
2022/01/17 09:28:54;;;;;;;0.60;0.60;;;5.90;99.90;;;;;;5054079;28;20463;-69
2022/01/17 09:31:20;;;;;;;1.20;1.10;;;5.90;99.90;;;;;;5053856;28;20441;-69
2022/01/17 09:33:46;;;;;;;0.90;0.70;;;5.90;99.90;;;;;;5054075;28;20478;-69
2022/01/17 09:36:12;;;;;;;1.27;1.17;;;5.90;99.90;;;;;;5036064;28;20822;-69
2022/01/17 09:38:37;;;;;;;0.60;0.60;;;5.90;99.90;;;;;;5054019;28;20455;-68
2022/01/17 09:41:03;;;;;;;1.63;0.80;;;5.90;99.90;;;;;;5054877;28;20226;-68
2022/01/17 09:43:29;;;;;;;0.60;0.60;;;5.90;99.90;;;;;;5054934;28;20216;-68
2022/01/17 09:45:56;;;;;;;1.00;0.90;;;6.00;99.90;;;;;;5053678;28;20451;-67
2022/01/17 09:48:23;;;;;;;3.70;0.97;;;6.00;99.90;;;;;;5054024;28;20183;-68
2022/01/17 09:51:03;;;;;;;2.20;0.80;;;6.00;99.90;;;;;;5053824;28;20441;-68
2022/01/17 09:53:33;;;;;;;1.53;1.03;;;6.00;99.90;;;;;;5049860;28;20410;-68
2022/01/17 09:56:03;;;;;;;0.60;0.60;;;5.90;99.90;;;;;;5045300;28;20417;-67
2022/01/17 09:58:29;;;;;;;0.63;0.63;;;5.50;99.90;;;;;;5053197;28;20476;-67
2022/01/17 10:00:55;;;;;;;0.50;0.50;;;5.40;99.90;;;;;;5048659;28;20849;-67
2022/01/17 10:03:21;;;;;;;1.23;0.90;;;5.40;99.90;;;;;;5053351;28;20460;-67
2022/01/17 10:05:47;;;;;;;0.80;0.80;;;5.40;99.90;;;;;;5053605;28;20495;-68
2022/01/17 10:08:16;;;;;;;1.00;1.00;;;5.50;99.90;;;;;;5053547;28;20504;-67
2022/01/17 10:10:59;;;;;;;1.13;0.73;;;5.60;99.90;;;;;;5053212;28;20437;-67
2022/01/17 10:13:29;;;;;;;0.60;0.60;;;5.70;99.90;;;;;;5053327;28;20485;-68
2022/01/17 10:16:10;;;;;;;0.90;0.90;;;5.70;99.90;;;;;;5053212;28;20418;-67
2022/01/17 10:18:54;;;;;;;0.80;0.80;;;5.80;99.90;;;;;;5053299;28;20945;-67
2022/01/17 10:21:48;;;;;;;1.53;0.80;;;5.80;99.90;;;;;;5053235;28;21174;-68
2022/01/17 10:24:25;;;;;;;0.50;0.50;;;5.80;99.90;;;;;;5053054;28;20463;-68
2022/01/17 10:30:12;;;;;;;4.83;0.87;;;6.00;99.90;;;;;;5052925;28;20440;-68
2022/01/17 10:35:17;;;;;;;0.70;0.70;;;6.10;99.90;;;;;;5053006;28;20467;-68
2022/01/17 10:38:07;;;;;;;1.80;0.60;;;6.20;99.90;;;;;;5052952;28;20425;-69
2022/01/17 10:40:55;;;;;;;0.70;0.70;;;6.20;99.90;;;;;;5052596;28;20461;-68
2022/01/17 10:43:28;;;;;;;0.60;0.60;;;6.20;99.90;;;;;;5049427;28;20457;-69
2022/01/17 10:45:56;;;;;;;2.17;0.93;;;6.30;99.90;;;;;;5052782;28;20417;-69
2022/01/17 10:48:31;;;;;;;7.23;1.47;;;6.30;99.90;;;;;;5052566;28;20421;-69
2022/01/17 10:50:57;;;;;;;0.70;0.70;;;6.30;99.90;;;;;;5037111;28;20518;-69
2022/01/17 10:53:22;;;;;;;3.60;1.00;;;6.30;99.90;;;;;;5048316;28;20887;-70
2022/01/17 10:55:55;;;;;;;1.10;0.73;;;6.20;99.90;;;;;;5052271;28;20429;-69
2022/01/17 10:58:38;;;;;;;6.90;1.10;;;6.10;99.90;;;;;;5052704;28;20653;-69
2022/01/17 11:01:16;;;;;;;1.20;1.00;;;6.00;99.90;;;;;;5051986;28;20969;-69
2022/01/17 11:03:44;;;;;;;2.47;1.03;;;6.00;99.90;;;;;;5050829;28;20459;-69
2022/01/17 11:06:14;;;;;;;1.00;0.73;;;5.90;99.90;;;;;;5052110;28;20471;-69
2022/01/17 11:08:45;;;;;;;1.13;0.80;;;5.90;99.90;;;;;;5050180;28;20479;-69
2022/01/17 11:11:14;;;;;;;1.10;0.83;;;5.70;99.90;;;;;;5046550;28;20476;-69
2022/01/17 11:13:44;;;;;;;1.00;1.00;;;5.20;99.90;;;;;;5052141;28;20425;-68
2022/01/17 11:16:18;;;;;;;0.60;0.60;;;4.80;99.90;;;;;;5051332;28;20430;-69
2022/01/17 11:18:57;;;;;;;1.40;1.00;;;4.50;99.90;;;;;;5051772;28;20847;-68
2022/01/17 11:21:29;;;;;;;0.83;0.70;;;4.10;99.90;;;;;;5051642;28;20436;-68
2022/01/17 11:24:01;;;;;;;1.00;1.00;;;4.00;99.90;;;;;;5047900;28;20566;-68
2022/01/17 11:26:31;;;;;;;1.87;0.80;;;3.70;99.90;;;;;;5051743;28;20414;-68
2022/01/17 11:28:57;;;;;;;0.70;0.70;;;3.60;99.90;;;;;;5050504;28;20425;-69
2022/01/17 11:31:26;;;;;;;0.80;0.80;;;3.60;99.90;;;;;;5047702;28;20453;-68
2022/01/17 11:33:56;;;;;;;1.43;1.00;;;3.50;99.90;;;;;;5051850;28;21003;-68
2022/01/17 11:36:22;;;;;;;1.43;1.07;;;3.30;99.90;;;;;;5051769;28;20417;-68
2022/01/17 11:38:58;;;;;;;1.20;0.83;;;3.30;99.90;;;;;;5051837;28;20472;-68
2022/01/17 11:41:34;;;;;;;0.70;0.70;;;3.30;99.90;;;;;;5052171;28;20456;-68
2022/01/17 11:44:05;;;;;;;0.90;0.80;;;3.40;99.90;;;;;;5051758;28;20457;-69
2022/01/17 11:46:44;;;;;;;0.60;0.60;;;3.20;99.90;;;;;;5051757;28;20467;-69
2022/01/17 11:49:17;;;;;;;1.37;0.70;;;3.30;99.90;;;;;;5050543;28;20495;-69
2022/01/17 11:51:53;;;;;;;2.97;1.90;;;3.30;99.90;;;;;;5042786;28;20426;-68
2022/01/17 11:54:33;;;;;;;5.70;1.10;;;3.40;99.90;;;;;;5042321;28;20476;-68
2022/01/17 11:57:06;;;;;;;1.43;0.90;;;3.30;99.90;;;;;;5041150;28;20822;-68
2022/01/17 11:59:52;;;;;;;1.00;0.87;;;3.30;99.90;;;;;;5051409;28;20508;-69
2022/01/17 12:02:37;;;;;;;1.27;1.17;;;3.40;99.90;;;;;;5050870;28;20421;-68
2022/01/17 12:05:10;;;;;;;10.33;1.23;;;3.40;99.90;;;;;;5051679;28;20420;-68
2022/01/17 12:07:40;;;;;;;7.80;2.40;;;3.50;99.90;;;;;;5051627;28;20480;-68
2022/01/17 12:10:11;;;;;;;1.13;0.70;;;3.50;99.90;;;;;;5049779;28;20437;-69
2022/01/17 12:12:44;;;;;;;5.47;1.20;;;3.60;99.90;;;;;;5047017;28;20444;-72
2022/01/17 12:15:17;;;;;;;0.70;0.70;;;3.70;99.90;;;;;;5050807;28;20883;-70
2022/01/17 12:18:04;;;;;;;12.13;1.00;;;3.70;99.90;;;;;;5051224;28;20941;-68
2022/01/17 12:20:47;;;;;;;1.97;0.90;;;3.80;99.90;;;;;;5044015;28;20448;-69
2022/01/17 12:23:27;;;;;;;2.63;1.17;;;3.90;99.90;;;;;;5037371;28;20467;-69
2022/01/17 12:26:28;;;;;;;0.80;0.80;;;4.00;99.90;;;;;;5050870;28;20783;-68
2022/01/17 12:28:58;;;;;;;1.73;1.00;;;4.00;99.90;;;;;;5050979;28;20427;-69
2022/01/17 12:31:51;;;;;;;2.40;0.90;;;4.00;99.90;;;;;;5050969;28;20434;-69
2022/01/17 12:34:25;;;;;;;1.00;1.00;;;4.00;99.90;;;;;;5050983;28;20420;-69
2022/01/17 12:36:56;;;;;;;0.60;0.60;;;4.00;99.90;;;;;;5050857;28;20521;-68
2022/01/17 12:39:29;;;;;;;1.80;1.67;;;4.20;99.90;;;;;;5050503;28;21042;-69
2022/01/17 12:42:01;;;;;;;3.50;1.27;;;4.20;99.90;;;;;;5050706;28;20428;-68
2022/01/17 12:44:41;;;;;;;1.03;0.87;;;4.30;99.90;;;;;;5030809;28;20454;-66
2022/01/17 12:47:10;;;;;;;1.87;1.17;;;4.20;99.90;;;;;;5038881;28;20445;-67
2022/01/17 12:49:35;;;;;;;3.63;1.03;;;4.80;99.90;;;;;;5047716;28;20805;-69
2022/01/17 12:52:02;;;;;;;0.97;0.90;;;4.70;99.90;;;;;;5045451;28;20420;-68
2022/01/17 12:54:33;;;;;;;1.60;1.20;;;4.60;99.90;;;;;;5051123;28;20167;-70
2022/01/17 12:57:01;;;;;;;1.00;0.80;;;4.50;99.90;;;;;;5051260;28;20406;-69
2022/01/17 12:59:28;;;;;;;0.87;0.77;;;4.50;99.90;;;;;;5050861;28;20448;-68
2022/01/17 13:02:01;;;;;;;0.83;0.80;;;4.60;99.90;;;;;;5050842;28;20449;-68
2022/01/17 13:04:29;;;;;;;1.77;1.50;;;4.50;99.90;;;;;;5044423;28;20544;-68
2022/01/17 13:06:55;;;;;;;0.70;0.70;;;4.60;99.90;;;;;;5042508;28;20411;-68
2022/01/17 13:09:24;;;;;;;1.73;0.90;;;4.50;99.90;;;;;;5050800;28;20398;-68
2022/01/17 13:11:52;;;;;;;1.83;0.90;;;4.50;99.90;;;;;;5049670;28;20409;-68
2022/01/17 13:14:22;;;;;;;3.03;0.90;;;4.40;99.90;;;;;;5063320;28;20423;-69
2022/01/17 13:16:52;;;;;;;3.33;1.00;;;4.30;99.90;;;;;;5066479;28;20451;-68
2022/01/17 13:19:20;;;;;;;1.73;1.03;;;4.20;99.90;;;;;;5054550;28;20413;-68
2022/01/17 13:21:51;;;;;;;0.70;0.70;;;4.20;99.90;;;;;;5054274;28;20427;-68
2022/01/17 13:24:33;;;;;;;1.70;0.80;;;4.20;99.90;;;;;;5054425;28;20512;-69